Time;durP1;ratioP1;P1;durP2;ratioP2;P2;SDS_P1;SDS_P2;PMS_P1;PMS_P2;Temp;Humidity;BMP_temperature;BMP_pressure;BME280_temperature;BME280_humidity;BME280_pressure;Samples;Min_cycle;Max_cycle;Signal;HPM_P1;HPM_P2
2024/01/04 00:02:11;;;;;;;2.63;2.42;;;;;;;;;;10285179;28;20095;-62
2024/01/04 00:07:09;;;;;;;2.45;2.25;;;;;;;;;;10288896;28;20072;-63
2024/01/04 00:12:09;;;;;;;2.65;1.90;;;;;;;;;;10277111;28;20088;-62
2024/01/04 00:17:08;;;;;;;1.75;1.65;;;;;;;;;;10281995;28;20076;-62
2024/01/04 00:22:06;;;;;;;2.03;1.73;;;;;;;;;;10284237;28;20064;-62
2024/01/04 00:27:04;;;;;;;1.88;1.75;;;;;;;;;;10281781;28;20087;-63
2024/01/04 00:32:04;;;;;;;3.08;2.88;;;;;;;;;;10288386;28;20467;-63
2024/01/04 00:37:04;;;;;;;12.68;3.00;;;;;;;;;;10285695;28;20091;-63
2024/01/04 00:42:02;;;;;;;2.47;2.28;;;;;;;;;;10288342;28;20079;-63
2024/01/04 00:47:00;;;;;;;3.28;2.75;;;;;;;;;;10293909;28;20079;-63
2024/01/04 00:52:00;;;;;;;3.38;2.40;;;;;;;;;;10290991;28;20493;-63
2024/01/04 00:56:59;;;;;;;3.33;3.03;;;;;;;;;;10290678;28;20463;-63
2024/01/04 01:01:57;;;;;;;3.30;2.88;;;;;;;;;;10292607;28;20071;-63
2024/01/04 01:06:55;;;;;;;3.70;3.35;;;;;;;;;;10291829;28;20045;-63
2024/01/04 01:11:56;;;;;;;2.60;2.40;;;;;;;;;;10303679;28;20045;-63
2024/01/04 01:16:55;;;;;;;2.45;2.25;;;;;;;;;;10291587;28;20080;-63
2024/01/04 01:21:53;;;;;;;2.40;2.10;;;;;;;;;;10289310;28;20049;-63
2024/01/04 01:26:51;;;;;;;2.63;2.42;;;;;;;;;;10291542;28;20639;-63
2024/01/04 01:31:51;;;;;;;2.90;2.30;;;;;;;;;;10290038;28;20075;-63
2024/01/04 01:36:50;;;;;;;2.45;2.25;;;;;;;;;;10291748;28;20068;-63
2024/01/04 01:41:48;;;;;;;3.38;2.40;;;;;;;;;;10292713;28;20079;-65
2024/01/04 01:46:46;;;;;;;2.33;2.13;;;;;;;;;;10297147;28;20053;-63
2024/01/04 01:51:46;;;;;;;2.60;2.40;;;;;;;;;;10290971;28;20351;-62
2024/01/04 01:56:44;;;;;;;2.75;2.50;;;;;;;;;;10290678;28;20080;-63
2024/01/04 02:01:43;;;;;;;2.50;2.00;;;;;;;;;;10292265;28;20056;-62
2024/01/04 02:06:42;;;;;;;1.92;1.80;;;;;;;;;;10286516;28;20069;-63
2024/01/04 02:11:42;;;;;;;3.95;2.40;;;;;;;;;;10307144;28;20471;-62
2024/01/04 02:16:40;;;;;;;11.55;9.23;;;;;;;;;;10290568;28;20064;-62
2024/01/04 02:21:39;;;;;;;7.53;6.32;;;;;;;;;;10299001;28;20073;-62
2024/01/04 02:26:38;;;;;;;5.25;4.20;;;;;;;;;;10287772;28;20045;-63
2024/01/04 02:31:36;;;;;;;3.45;3.15;;;;;;;;;;10289857;28;20073;-62
2024/01/04 02:36:35;;;;;;;2.85;2.60;;;;;;;;;;10290644;28;20087;-63
2024/01/04 02:41:33;;;;;;;3.03;2.33;;;;;;;;;;10288141;28;20078;-63
2024/01/04 02:46:32;;;;;;;2.97;2.58;;;;;;;;;;10289756;28;20068;-63
2024/01/04 02:51:31;;;;;;;2.30;2.10;;;;;;;;;;10288315;28;20100;-63
2024/01/04 02:56:29;;;;;;;4.20;2.53;;;;;;;;;;10289537;28;20080;-63
2024/01/04 03:01:29;;;;;;;2.30;2.10;;;;;;;;;;10288915;28;20076;-63
2024/01/04 03:06:30;;;;;;;2.50;2.30;;;;;;;;;;10288263;28;20060;-63
2024/01/04 03:11:28;;;;;;;2.97;2.38;;;;;;;;;;10283791;28;20079;-63
2024/01/04 03:16:28;;;;;;;2.60;2.40;;;;;;;;;;10288693;28;20612;-63
2024/01/04 03:21:26;;;;;;;5.38;3.03;;;;;;;;;;10282775;28;20072;-63
2024/01/04 03:26:26;;;;;;;4.95;3.25;;;;;;;;;;10287693;28;20472;-63
2024/01/04 03:31:24;;;;;;;4.32;3.10;;;;;;;;;;10287074;28;20080;-62
2024/01/04 03:36:22;;;;;;;3.85;2.65;;;;;;;;;;10288767;28;20598;-63
2024/01/04 03:41:21;;;;;;;3.10;2.78;;;;;;;;;;10287889;28;20065;-63
2024/01/04 03:46:20;;;;;;;4.65;2.92;;;;;;;;;;10283345;28;20103;-63
2024/01/04 03:51:18;;;;;;;4.88;3.80;;;;;;;;;;10286401;28;20083;-62
2024/01/04 03:56:17;;;;;;;4.47;3.05;;;;;;;;;;10287731;28;20087;-62
2024/01/04 04:01:15;;;;;;;4.60;3.80;;;;;;;;;;10286347;28;20084;-64
2024/01/04 04:06:15;;;;;;;6.38;4.53;;;;;;;;;;10285915;28;20076;-63
2024/01/04 04:11:16;;;;;;;5.60;4.25;;;;;;;;;;10285514;28;20069;-63
2024/01/04 04:16:15;;;;;;;5.20;3.40;;;;;;;;;;10291280;28;20076;-64
2024/01/04 04:21:19;;;;;;;5.13;3.78;;;;;;;;;;10294667;28;20083;-64
2024/01/04 04:26:18;;;;;;;;;;;;;;;;;;10292374;28;20073;-63
2024/01/04 04:31:17;;;;;;;3.15;2.85;;;;;;;;;;10294062;28;19971;-63
2024/01/04 04:36:15;;;;;;;2.35;2.15;;;;;;;;;;10295839;28;20095;-63
2024/01/04 04:41:15;;;;;;;4.15;2.45;;;;;;;;;;10292234;28;20072;-62
2024/01/04 04:46:13;;;;;;;2.58;2.38;;;;;;;;;;10293836;28;20431;-63
2024/01/04 04:51:11;;;;;;;2.55;2.25;;;;;;;;;;10293540;28;20077;-63
2024/01/04 04:56:10;;;;;;;3.08;2.40;;;;;;;;;;10293625;28;20091;-63
2024/01/04 05:01:10;;;;;;;3.15;2.88;;;;;;;;;;10291880;28;20498;-63
2024/01/04 05:06:08;;;;;;;3.00;2.40;;;;;;;;;;10291165;28;20065;-62
2024/01/04 05:11:06;;;;;;;3.50;2.63;;;;;;;;;;10290770;28;20072;-63
2024/01/04 05:16:06;;;;;;;4.93;2.20;;;;;;;;;;10294003;28;20568;-63
2024/01/04 05:21:06;;;;;;;2.50;2.25;;;;;;;;;;10292247;28;20474;-62
2024/01/04 05:26:04;;;;;;;3.10;2.65;;;;;;;;;;10292763;28;20077;-63
2024/01/04 05:31:03;;;;;;;3.08;2.78;;;;;;;;;;10292773;28;20069;-63
2024/01/04 05:36:01;;;;;;;2.45;2.25;;;;;;;;;;10299120;28;20455;-62
2024/01/04 05:41:01;;;;;;;2.10;1.95;;;;;;;;;;10287659;28;20083;-62
2024/01/04 05:45:59;;;;;;;3.45;2.67;;;;;;;;;;10283066;28;20450;-62
2024/01/04 05:50:57;;;;;;;3.35;3.05;;;;;;;;;;10282382;28;20072;-63
2024/01/04 05:55:56;;;;;;;3.00;2.70;;;;;;;;;;10300228;28;20060;-63
2024/01/04 06:00:55;;;;;;;5.63;3.47;;;;;;;;;;10300333;28;20072;-63
2024/01/04 06:05:53;;;;;;;2.78;2.42;;;;;;;;;;10296332;28;20072;-63
2024/01/04 06:10:52;;;;;;;2.80;2.55;;;;;;;;;;10297542;28;20084;-63
2024/01/04 06:15:50;;;;;;;3.20;2.70;;;;;;;;;;10299912;28;20166;-64
2024/01/04 06:20:50;;;;;;;3.08;2.70;;;;;;;;;;10284994;28;20076;-63
2024/01/04 06:25:48;;;;;;;3.17;2.50;;;;;;;;;;10284838;28;20509;-62
2024/01/04 06:30:46;;;;;;;2.40;2.20;;;;;;;;;;10288408;28;20068;-64
2024/01/04 06:35:45;;;;;;;2.80;2.40;;;;;;;;;;10282716;28;20080;-63
2024/01/04 06:40:45;;;;;;;2.70;2.08;;;;;;;;;;10285120;28;20076;-64
2024/01/04 06:45:44;;;;;;;4.47;2.33;;;;;;;;;;10286213;28;20091;-62
2024/01/04 06:50:43;;;;;;;4.35;2.60;;;;;;;;;;10286979;28;20081;-63
2024/01/04 06:55:41;;;;;;;3.33;2.67;;;;;;;;;;10288624;28;20068;-63
2024/01/04 07:00:41;;;;;;;7.13;5.57;;;;;;;;;;10288492;28;20105;-63
2024/01/04 07:05:39;;;;;;;17.63;9.35;;;;;;;;;;10284022;28;20071;-64
2024/01/04 07:10:40;;;;;;;9.13;6.50;;;;;;;;;;10285525;28;20079;-63
2024/01/04 07:15:39;;;;;;;3.50;3.20;;;;;;;;;;10283256;28;20077;-63
2024/01/04 07:20:41;;;;;;;5.78;4.07;;;;;;;;;;10286386;28;20529;-63
2024/01/04 07:25:40;;;;;;;4.60;2.75;;;;;;;;;;10288699;28;20831;-63
2024/01/04 07:30:39;;;;;;;3.67;2.90;;;;;;;;;;10286271;28;20087;-64
2024/01/04 07:35:39;;;;;;;3.83;2.97;;;;;;;;;;10286312;28;20076;-63
2024/01/04 07:40:37;;;;;;;5.28;3.78;;;;;;;;;;10288028;28;20650;-63
2024/01/04 07:45:36;;;;;;;10.25;7.95;;;;;;;;;;10286961;28;20061;-64
2024/01/04 07:50:34;;;;;;;9.35;6.63;;;;;;;;;;10287233;28;20536;-64
2024/01/04 07:55:34;;;;;;;4.07;3.65;;;;;;;;;;10281127;28;20073;-63
2024/01/04 08:00:32;;;;;;;4.13;3.05;;;;;;;;;;10283656;28;20088;-63
2024/01/04 08:05:31;;;;;;;3.85;2.33;;;;;;;;;;10288424;28;20075;-63
2024/01/04 08:10:29;;;;;;;4.18;3.10;;;;;;;;;;10286392;28;20068;-64
2024/01/04 08:15:33;;;;;;;4.53;3.53;;;;;;;;;;10282322;28;20063;-64
2024/01/04 08:20:32;;;;;;;4.88;3.55;;;;;;;;;;10282147;28;20075;-64
2024/01/04 08:25:30;;;;;;;3.50;3.03;;;;;;;;;;10285692;28;20132;-64
2024/01/04 08:30:30;;;;;;;3.30;3.00;;;;;;;;;;10278182;28;20061;-62
2024/01/04 08:35:28;;;;;;;5.65;3.90;;;;;;;;;;10279106;28;20099;-63
2024/01/04 08:40:27;;;;;;;9.13;3.53;;;;;;;;;;10282212;28;20499;-63
2024/01/04 08:45:25;;;;;;;4.15;3.30;;;;;;;;;;10279174;28;20529;-63
2024/01/04 08:50:25;;;;;;;5.07;2.90;;;;;;;;;;10287158;28;20084;-62
2024/01/04 08:55:23;;;;;;;3.40;3.10;;;;;;;;;;10284885;28;20087;-64
2024/01/04 09:00:21;;;;;;;3.03;2.33;;;;;;;;;;10282476;28;20073;-63
2024/01/04 09:05:20;;;;;;;2.42;2.22;;;;;;;;;;10291023;28;20076;-64
2024/01/04 09:10:19;;;;;;;4.22;3.35;;;;;;;;;;10289470;28;20516;-63
2024/01/04 09:15:18;;;;;;;5.10;2.38;;;;;;;;;;10290168;28;20071;-64
2024/01/04 09:20:16;;;;;;;2.92;2.60;;;;;;;;;;10292924;28;20075;-63
2024/01/04 09:25:14;;;;;;;2.30;2.10;;;;;;;;;;10290145;28;20063;-64
2024/01/04 09:30:14;;;;;;;4.57;3.67;;;;;;;;;;10289559;28;20076;-63
2024/01/04 09:35:13;;;;;;;6.70;3.78;;;;;;;;;;10292619;28;20103;-63
2024/01/04 09:40:12;;;;;;;5.15;4.43;;;;;;;;;;10291237;28;20076;-62
2024/01/04 09:45:12;;;;;;;18.70;11.82;;;;;;;;;;10289692;28;20069;-64
2024/01/04 09:50:13;;;;;;;7.32;5.65;;;;;;;;;;10291304;28;20080;-63
2024/01/04 09:55:13;;;;;;;7.03;5.00;;;;;;;;;;10288412;28;20087;-63
2024/01/04 10:00:11;;;;;;;8.75;5.95;;;;;;;;;;10289854;28;20083;-63
2024/01/04 10:05:13;;;;;;;27.50;18.90;;;;;;;;;;10285261;28;20532;-63
2024/01/04 10:10:15;;;;;;;11.80;5.72;;;;;;;;;;10286909;28;20083;-63
2024/01/04 10:15:15;;;;;;;10.15;5.00;;;;;;;;;;10290758;28;20064;-63
2024/01/04 10:20:15;;;;;;;6.72;5.95;;;;;;;;;;10285055;28;20076;-62
2024/01/04 10:25:18;;;;;;;5.32;4.15;;;;;;;;;;10292193;28;20060;-64
2024/01/04 10:30:18;;;;;;;7.43;5.63;;;;;;;;;;10285702;28;20074;-62
2024/01/04 10:35:24;;;;;;;7.97;6.13;;;;;;;;;;10282000;28;20084;-64
2024/01/04 10:40:23;;;;;;;7.38;4.78;;;;;;;;;;10292775;28;20087;-63
2024/01/04 10:45:29;;;;;;;14.48;5.15;;;;;;;;;;10290055;28;20467;-64
2024/01/04 10:50:31;;;;;;;17.48;11.20;;;;;;;;;;10291615;28;20499;-62
2024/01/04 10:55:29;;;;;;;16.15;8.63;;;;;;;;;;10287547;28;20097;-63
2024/01/04 11:00:28;;;;;;;14.18;6.53;;;;;;;;;;10289535;28;20506;-63
2024/01/04 11:05:27;;;;;;;6.97;4.63;;;;;;;;;;10288071;28;20072;-63
2024/01/04 11:10:28;;;;;;;5.47;4.00;;;;;;;;;;10288899;28;20065;-63
2024/01/04 11:15:27;;;;;;;21.33;13.02;;;;;;;;;;10289091;28;20080;-63
2024/01/04 11:20:31;;;;;;;7.20;5.85;;;;;;;;;;10287290;28;20110;-63
2024/01/04 11:25:37;;;;;;;4.72;4.10;;;;;;;;;;10284200;28;20064;-63
2024/01/04 11:30:36;;;;;;;8.75;5.90;;;;;;;;;;10284291;28;20068;-63
2024/01/04 11:35:35;;;;;;;5.38;4.75;;;;;;;;;;10283985;28;20076;-63
2024/01/04 11:40:37;;;;;;;6.25;3.75;;;;;;;;;;10287321;28;20080;-62
2024/01/04 11:45:35;;;;;;;10.00;7.40;;;;;;;;;;10283763;28;20056;-63
2024/01/04 11:50:33;;;;;;;7.72;4.72;;;;;;;;;;10285266;28;20064;-63
2024/01/04 11:55:33;;;;;;;4.47;4.00;;;;;;;;;;10287791;28;20060;-63
2024/01/04 12:00:34;;;;;;;7.97;5.10;;;;;;;;;;10286522;28;20542;-63
2024/01/04 12:05:33;;;;;;;27.38;14.10;;;;;;;;;;10286199;28;20822;-62
2024/01/04 12:10:32;;;;;;;11.13;4.43;;;;;;;;;;10287163;28;20517;-63
2024/01/04 12:15:30;;;;;;;11.52;3.70;;;;;;;;;;10283417;28;20069;-64
2024/01/04 12:20:30;;;;;;;3.45;3.08;;;;;;;;;;10284985;28;20162;-63
2024/01/04 12:25:28;;;;;;;5.90;3.10;;;;;;;;;;10282975;28;20071;-63
2024/01/04 12:30:28;;;;;;;8.07;5.75;;;;;;;;;;10280571;28;20514;-63
2024/01/04 12:35:26;;;;;;;13.82;11.93;;;;;;;;;;10279349;28;20083;-63
2024/01/04 12:40:26;;;;;;;21.13;13.07;;;;;;;;;;10289506;28;20080;-63
2024/01/04 12:45:27;;;;;;;19.00;14.13;;;;;;;;;;10285136;28;20065;-63
2024/01/04 12:50:25;;;;;;;13.90;11.98;;;;;;;;;;10286721;28;20516;-64
2024/01/04 12:55:24;;;;;;;8.43;7.53;;;;;;;;;;10290756;28;20072;-64
2024/01/04 13:00:24;;;;;;;12.52;10.32;;;;;;;;;;10286667;28;20072;-64
2024/01/04 13:05:22;;;;;;;9.55;7.35;;;;;;;;;;10288193;28;20076;-64
2024/01/04 13:10:21;;;;;;;9.23;7.35;;;;;;;;;;10288063;28;20071;-64
2024/01/04 13:15:19;;;;;;;13.20;10.80;;;;;;;;;;10290652;28;20072;-64
2024/01/04 13:20:19;;;;;;;13.80;10.43;;;;;;;;;;10288869;28;20079;-64
2024/01/04 13:25:17;;;;;;;19.20;13.82;;;;;;;;;;10290343;28;20069;-64
2024/01/04 13:30:16;;;;;;;15.05;9.68;;;;;;;;;;10287408;28;20068;-64
2024/01/04 13:35:14;;;;;;;8.98;6.95;;;;;;;;;;10248002;28;1147393;-64
2024/01/04 13:40:14;;;;;;;8.15;7.18;;;;;;;;;;10291953;28;20085;-62
2024/01/04 13:45:12;;;;;;;17.58;15.65;;;;;;;;;;10290714;28;20087;-62
2024/01/04 13:50:11;;;;;;;38.20;34.00;;;;;;;;;;10291547;28;20068;-63
2024/01/04 13:55:09;;;;;;;14.63;11.93;;;;;;;;;;10290971;28;20068;-63
2024/01/04 14:00:10;;;;;;;13.13;10.80;;;;;;;;;;10292075;28;20073;-63
2024/01/04 14:05:11;;;;;;;35.72;26.38;;;;;;;;;;10290096;28;20077;-63
2024/01/04 14:10:10;;;;;;;9.00;6.90;;;;;;;;;;10290554;28;20065;-64
2024/01/04 14:15:10;;;;;;;8.63;6.20;;;;;;;;;;10290995;28;20073;-64
2024/01/04 14:20:10;;;;;;;13.07;7.68;;;;;;;;;;10290759;28;20076;-63
2024/01/04 14:25:09;;;;;;;17.60;9.65;;;;;;;;;;10290847;28;20080;-64
2024/01/04 14:30:08;;;;;;;10.85;8.82;;;;;;;;;;10288143;28;20084;-63
2024/01/04 14:35:08;;;;;;;8.13;6.90;;;;;;;;;;10288216;28;20096;-63
2024/01/04 14:40:07;;;;;;;23.35;20.75;;;;;;;;;;10290477;28;20525;-64
2024/01/04 14:45:06;;;;;;;51.40;46.03;;;;;;;;;;10289710;28;20083;-64
2024/01/04 14:50:05;;;;;;;53.80;48.83;;;;;;;;;;10289489;28;20084;-64
2024/01/04 14:55:06;;;;;;;22.45;20.08;;;;;;;;;;10289634;28;20072;-64
2024/01/04 15:00:05;;;;;;;19.30;17.10;;;;;;;;;;10287843;28;20506;-64
2024/01/04 15:05:04;;;;;;;19.88;16.90;;;;;;;;;;10284222;28;20084;-64
2024/01/04 15:10:02;;;;;;;18.73;16.92;;;;;;;;;;10288625;28;20080;-64
2024/01/04 15:15:05;;;;;;;19.67;16.73;;;;;;;;;;10287818;28;20477;-64
2024/01/04 15:20:04;;;;;;;11.15;9.18;;;;;;;;;;10287502;28;20495;-64
2024/01/04 15:25:03;;;;;;;18.50;13.38;;;;;;;;;;10286913;28;20077;-64
2024/01/04 15:30:02;;;;;;;10.73;8.63;;;;;;;;;;10288807;28;20080;-64
2024/01/04 15:35:01;;;;;;;18.63;14.00;;;;;;;;;;10286833;28;20468;-64
2024/01/04 15:40:00;;;;;;;18.42;15.75;;;;;;;;;;10286277;28;20105;-64
2024/01/04 15:44:58;;;;;;;26.33;20.45;;;;;;;;;;10279368;28;20076;-64
2024/01/04 15:49:58;;;;;;;17.17;15.35;;;;;;;;;;10278571;28;20079;-64
2024/01/04 15:54:56;;;;;;;13.00;11.70;;;;;;;;;;10287227;28;20064;-64
2024/01/04 15:59:54;;;;;;;19.02;16.70;;;;;;;;;;10285265;28;20067;-64
2024/01/04 16:04:53;;;;;;;22.67;15.48;;;;;;;;;;10286426;28;20495;-63
2024/01/04 16:09:52;;;;;;;11.75;10.25;;;;;;;;;;10285865;28;20069;-63
2024/01/04 16:14:51;;;;;;;33.17;28.00;;;;;;;;;;10286578;28;20080;-63
2024/01/04 16:19:49;;;;;;;22.65;17.70;;;;;;;;;;10286255;28;20483;-64
2024/01/04 16:24:47;;;;;;;24.33;19.80;;;;;;;;;;10286215;28;20085;-63
2024/01/04 16:29:48;;;;;;;16.20;12.95;;;;;;;;;;10278801;28;20080;-63
2024/01/04 16:34:46;;;;;;;15.98;14.10;;;;;;;;;;10283956;28;20091;-62
2024/01/04 16:39:45;;;;;;;8.90;8.07;;;;;;;;;;10281945;28;20073;-64
2024/01/04 16:44:43;;;;;;;9.45;8.15;;;;;;;;;;10284273;28;20526;-63
2024/01/04 16:49:44;;;;;;;8.88;8.07;;;;;;;;;;10281020;28;20076;-63
2024/01/04 16:54:42;;;;;;;9.10;8.30;;;;;;;;;;10279202;28;20068;-63
2024/01/04 16:59:41;;;;;;;11.35;10.40;;;;;;;;;;10279811;28;20827;-64
2024/01/04 17:04:39;;;;;;;16.85;15.45;;;;;;;;;;10275048;28;20080;-64
2024/01/04 17:09:38;;;;;;;12.48;10.32;;;;;;;;;;10281377;28;20079;-62
2024/01/04 17:14:37;;;;;;;17.60;13.68;;;;;;;;;;10282952;28;20072;-63
2024/01/04 17:19:35;;;;;;;12.10;10.80;;;;;;;;;;10282124;28;20075;-63
2024/01/04 17:24:33;;;;;;;10.70;9.30;;;;;;;;;;10282931;28;20121;-63
2024/01/04 17:29:33;;;;;;;11.35;10.23;;;;;;;;;;10289108;28;20656;-63
2024/01/04 17:34:31;;;;;;;10.30;8.30;;;;;;;;;;10291561;28;20071;-63
2024/01/04 17:39:29;;;;;;;12.98;8.75;;;;;;;;;;10288894;28;20072;-64
2024/01/04 17:44:28;;;;;;;9.57;7.65;;;;;;;;;;10293306;28;20799;-63
2024/01/04 17:49:27;;;;;;;13.63;7.32;;;;;;;;;;10291938;28;20081;-63
2024/01/04 17:54:26;;;;;;;11.85;7.97;;;;;;;;;;10291433;28;20079;-63
2024/01/04 17:59:24;;;;;;;9.90;8.98;;;;;;;;;;10291247;28;20068;-63
2024/01/04 18:04:22;;;;;;;8.30;6.80;;;;;;;;;;10291878;28;20487;-63
2024/01/04 18:09:22;;;;;;;11.38;6.80;;;;;;;;;;10292054;28;20103;-63
2024/01/04 18:14:20;;;;;;;9.93;7.43;;;;;;;;;;10285618;28;20076;-63
2024/01/04 18:19:19;;;;;;;7.53;5.90;;;;;;;;;;10285021;28;20099;-64
2024/01/04 18:24:20;;;;;;;11.70;6.75;;;;;;;;;;10289379;28;20083;-65
2024/01/04 18:29:20;;;;;;;10.80;6.55;;;;;;;;;;10289280;28;20107;-64
2024/01/04 18:34:21;;;;;;;6.30;5.57;;;;;;;;;;10287555;28;20080;-64
2024/01/04 18:39:20;;;;;;;11.57;8.70;;;;;;;;;;10288304;28;20088;-65
2024/01/04 18:44:20;;;;;;;10.68;8.20;;;;;;;;;;10286798;28;20115;-64
2024/01/04 18:49:18;;;;;;;11.07;7.57;;;;;;;;;;10283719;28;20072;-64
2024/01/04 18:54:16;;;;;;;6.43;5.82;;;;;;;;;;10284683;28;20482;-64
2024/01/04 18:59:17;;;;;;;9.13;7.53;;;;;;;;;;10284549;28;20072;-64
2024/01/04 19:04:17;;;;;;;8.73;6.43;;;;;;;;;;10278013;28;20674;-65
2024/01/04 19:09:15;;;;;;;7.30;6.55;;;;;;;;;;10303324;28;20099;-63
2024/01/04 19:14:14;;;;;;;6.07;5.47;;;;;;;;;;10321240;28;20079;-63
2024/01/04 19:19:12;;;;;;;4.88;4.32;;;;;;;;;;10287279;28;20487;-63
2024/01/04 19:24:13;;;;;;;6.85;6.05;;;;;;;;;;10278764;28;20071;-62
2024/01/04 19:29:13;;;;;;;4.57;3.88;;;;;;;;;;10283199;28;20499;-63
2024/01/04 19:34:11;;;;;;;7.97;7.28;;;;;;;;;;10287453;28;20475;-64
2024/01/04 19:39:10;;;;;;;6.13;5.53;;;;;;;;;;10287033;28;20079;-63
2024/01/04 19:44:10;;;;;;;10.68;7.30;;;;;;;;;;10284060;28;20071;-63
2024/01/04 19:49:08;;;;;;;6.50;5.72;;;;;;;;;;10279941;28;20540;-63
2024/01/04 19:54:06;;;;;;;7.35;5.32;;;;;;;;;;10318761;28;20083;-63
2024/01/04 19:59:07;;;;;;;6.38;5.68;;;;;;;;;;10317893;28;20494;-63
2024/01/04 20:04:09;;;;;;;10.45;8.57;;;;;;;;;;10285035;28;20473;-63
2024/01/04 20:09:09;;;;;;;7.70;6.50;;;;;;;;;;10283736;28;20084;-63
2024/01/04 20:14:07;;;;;;;8.63;6.63;;;;;;;;;;10282117;28;20517;-63
2024/01/04 20:19:07;;;;;;;12.48;5.68;;;;;;;;;;10288885;28;20474;-64
2024/01/04 20:24:05;;;;;;;8.60;6.25;;;;;;;;;;10284030;28;20083;-64
2024/01/04 20:29:04;;;;;;;7.97;5.50;;;;;;;;;;10288880;28;20088;-64
2024/01/04 20:34:02;;;;;;;8.98;6.75;;;;;;;;;;10282955;28;20087;-63
2024/01/04 20:39:02;;;;;;;5.57;5.07;;;;;;;;;;10282532;28;20092;-64
2024/01/04 20:44:01;;;;;;;8.02;5.18;;;;;;;;;;10284426;28;20080;-65
2024/01/04 20:48:59;;;;;;;7.07;6.00;;;;;;;;;;10286459;28;20068;-65
2024/01/04 20:53:57;;;;;;;6.97;5.72;;;;;;;;;;10282959;28;20072;-64
2024/01/04 20:58:57;;;;;;;6.20;5.55;;;;;;;;;;10287153;28;20159;-63
2024/01/04 21:03:55;;;;;;;8.60;6.55;;;;;;;;;;10292250;28;20080;-64
2024/01/04 21:08:54;;;;;;;7.30;5.88;;;;;;;;;;10291329;28;20072;-63
2024/01/04 21:13:52;;;;;;;9.30;7.07;;;;;;;;;;10293211;28;20616;-65
2024/01/04 21:18:53;;;;;;;9.68;7.30;;;;;;;;;;10291465;28;20512;-65
2024/01/04 21:23:51;;;;;;;7.25;6.18;;;;;;;;;;10290624;28;20080;-64
2024/01/04 21:28:50;;;;;;;8.52;6.03;;;;;;;;;;10289617;28;20073;-64
2024/01/04 21:33:48;;;;;;;8.27;6.20;;;;;;;;;;10292296;28;20077;-64
2024/01/04 21:38:48;;;;;;;8.20;5.18;;;;;;;;;;10285514;28;20076;-62
2024/01/04 21:43:47;;;;;;;7.57;5.90;;;;;;;;;;10291771;28;20084;-64
2024/01/04 21:48:46;;;;;;;7.82;6.35;;;;;;;;;;10294060;28;20079;-63
2024/01/04 21:53:47;;;;;;;7.18;5.18;;;;;;;;;;10291754;28;20087;-64
2024/01/04 21:58:47;;;;;;;7.57;5.88;;;;;;;;;;10290919;28;20068;-64
2024/01/04 22:03:46;;;;;;;11.57;7.75;;;;;;;;;;10291561;28;20045;-64
2024/01/04 22:08:44;;;;;;;9.60;7.05;;;;;;;;;;10292585;28;20071;-64
2024/01/04 22:13:42;;;;;;;6.97;5.95;;;;;;;;;;10291635;28;20068;-63
2024/01/04 22:18:42;;;;;;;12.15;8.85;;;;;;;;;;10290345;28;20075;-63
2024/01/04 22:23:40;;;;;;;8.30;6.55;;;;;;;;;;10289860;28;20073;-63
2024/01/04 22:28:38;;;;;;;10.85;7.95;;;;;;;;;;10290608;28;20475;-63
2024/01/04 22:33:37;;;;;;;6.07;5.47;;;;;;;;;;10290420;28;20076;-63
2024/01/04 22:38:36;;;;;;;7.15;6.28;;;;;;;;;;10290849;28;20064;-63
2024/01/04 22:43:35;;;;;;;5.80;5.20;;;;;;;;;;10284369;28;20072;-63
2024/01/04 22:48:33;;;;;;;12.52;8.07;;;;;;;;;;10284278;28;20076;-63
2024/01/04 22:53:31;;;;;;;8.98;6.97;;;;;;;;;;10287551;28;20072;-63
2024/01/04 22:58:31;;;;;;;7.72;6.22;;;;;;;;;;10281643;28;20076;-62
2024/01/04 23:03:29;;;;;;;8.85;6.57;;;;;;;;;;10282201;28;20060;-62
2024/01/04 23:08:27;;;;;;;6.65;4.90;;;;;;;;;;10281604;28;20083;-63
2024/01/04 23:13:26;;;;;;;8.82;6.05;;;;;;;;;;10282355;28;20072;-62
2024/01/04 23:18:25;;;;;;;7.75;5.85;;;;;;;;;;10283878;28;20115;-64
2024/01/04 23:23:23;;;;;;;7.13;5.20;;;;;;;;;;10287211;28;20077;-64
2024/01/04 23:28:22;;;;;;;9.73;6.72;;;;;;;;;;10288371;28;20337;-64
2024/01/04 23:33:20;;;;;;;7.78;6.00;;;;;;;;;;10288384;28;20080;-63
2024/01/04 23:38:35;;;;;;;6.38;5.05;;;;;;;;;;10288464;28;20593;-63
2024/01/04 23:43:33;;;;;;;8.68;4.68;;;;;;;;;;10287503;28;20064;-63
2024/01/04 23:48:31;;;;;;;5.45;4.57;;;;;;;;;;10287440;28;20076;-63
2024/01/04 23:53:30;;;;;;;5.72;4.15;;;;;;;;;;10286521;28;20075;-63
2024/01/04 23:58:29;;;;;;;4.15;3.72;;;;;;;;;;10288968;28;20471;-63
